Time;durP1;ratioP1;P1;durP2;ratioP2;P2;SDS_P1;SDS_P2;PMS_P1;PMS_P2;Temp;Humidity;BMP_temperature;BMP_pressure;BME280_temperature;BME280_humidity;BME280_pressure;Samples;Min_cycle;Max_cycle;Signal;HPM_P1;HPM_P2
2021/09/19 00:00:37;;;;;;;;;;;;;;;;;;5018490;28;20321;-83
2021/09/19 00:03:02;;;;;;;;;;;;;;;;;;5015149;28;20220;-83
2021/09/19 00:05:28;;;;;;;;;;;;;;;;;;5028470;28;20435;-82
2021/09/19 00:07:53;;;;;;;;;;;;;;;;;;5019878;28;19928;-82
2021/09/19 00:10:19;;;;;;;;;;;;;;;;;;5020067;28;19953;-82
2021/09/19 00:12:45;;;;;;;;;;;;;;;;;;5021665;28;19914;-82
2021/09/19 00:15:12;;;;;;;;;;;;;;;;;;5016789;28;19925;-83
2021/09/19 00:17:38;;;;;;;;;;;;;;;;;;5013147;28;19991;-82
2021/09/19 00:20:03;;;;;;;;;;;;;;;;;;5013978;28;20377;-82
2021/09/19 00:22:29;;;;;;;;;;;;;;;;;;5013849;28;19922;-82
2021/09/19 00:24:54;;;;;;;;;;;;;;;;;;5017771;28;20444;-82
2021/09/19 00:27:20;;;;;;;;;;;;;;;;;;5022038;28;19917;-82
2021/09/19 00:29:46;;;;;;;;;;;;;;;;;;5032961;28;19921;-81
2021/09/19 00:32:11;;;;;;;;;;;;;;;;;;5013864;28;19921;-83
2021/09/19 00:34:37;;;;;;;;;;;;;;;;;;5013762;28;19932;-82
2021/09/19 00:37:02;;;;;;;;;;;;;;;;;;5013728;28;19922;-83
2021/09/19 00:39:28;;;;;;;;;;;;;;;;;;5013748;28;19963;-82
2021/09/19 00:41:53;;;;;;;;;;;;;;;;;;5013995;28;19921;-83
2021/09/19 00:44:23;;;;;;;;;;;;;;;;;;5013638;28;20011;-82
2021/09/19 00:46:49;;;;;;;;;;;;;;;;;;5014020;28;20389;-83
2021/09/19 00:49:14;;;;;;;;;;;;;;;;;;5022707;28;19917;-89
2021/09/19 00:51:42;;;;;;;;;;;;;;;;;;5033175;28;19921;-83
2021/09/19 00:54:10;;;;;;;;;;;;;;;;;;5033430;28;19917;-84
2021/09/19 00:56:36;;;;;;;;;;;;;;;;;;5033213;28;20008;-83
2021/09/19 00:59:01;;;;;;;;;;;;;;;;;;5033372;28;19948;-82
2021/09/19 01:01:27;;;;;;;;;;;;;;;;;;5032047;28;19964;-83
2021/09/19 01:03:52;;;;;;;;;;;;;;;;;;5033249;28;19917;-85
2021/09/19 01:06:18;;;;;;;;;;;;;;;;;;5033192;28;19917;-89
2021/09/19 01:08:44;;;;;;;;;;;;;;;;;;5033275;28;19989;-82
2021/09/19 01:11:13;;;;;;;;;;;;;;;;;;5033539;28;19917;-81
2021/09/19 01:13:42;;;;;;;;;;;;;;;;;;5033253;28;19917;-82
2021/09/19 01:16:08;;;;;;;;;;;;;;;;;;5034716;28;19917;-82
2021/09/19 01:18:34;;;;;;;;;;;;;;;;;;5036530;28;19921;-81
2021/09/19 01:20:59;;;;;;;;;;;;;;;;;;5036914;28;19936;-83
2021/09/19 01:23:28;;;;;;;;;;;;;;;;;;5046235;28;19918;-82
2021/09/19 01:25:54;;;;;;;;;;;;;;;;;;5050366;28;19949;-81
2021/09/19 01:28:19;;;;;;;;;;;;;;;;;;5045893;28;19913;-83
2021/09/19 01:30:45;;;;;;;;;;;;;;;;;;5035907;28;20292;-83
2021/09/19 01:33:10;;;;;;;;;;;;;;;;;;5036102;28;19920;-82
2021/09/19 01:35:36;;;;;;;;;;;;;;;;;;5036424;28;19917;-82
2021/09/19 01:38:02;;;;;;;;;;;;;;;;;;5036499;28;19924;-83
2021/09/19 01:40:28;;;;;;;;;;;;;;;;;;5036300;28;19920;-82
2021/09/19 01:42:54;;;;;;;;;;;;;;;;;;5036335;28;19921;-85
2021/09/19 01:45:20;;;;;;;;;;;;;;;;;;5036298;28;19913;-83
2021/09/19 01:47:45;;;;;;;;;;;;;;;;;;5036528;28;19917;-82
2021/09/19 01:50:11;;;;;;;;;;;;;;;;;;5035992;28;19964;-83
2021/09/19 01:52:36;;;;;;;;;;;;;;;;;;5036131;28;19956;-84
2021/09/19 01:55:03;;;;;;;;;;;;;;;;;;5036114;28;19994;-83
2021/09/19 01:57:28;;;;;;;;;;;;;;;;;;5036050;28;20004;-83
2021/09/19 01:59:55;;;;;;;;;;;;;;;;;;5036109;28;19917;-83
2021/09/19 02:02:21;;;;;;;;;;;;;;;;;;5035990;28;20442;-83
2021/09/19 02:04:47;;;;;;;;;;;;;;;;;;5035989;28;19921;-82
2021/09/19 02:07:13;;;;;;;;;;;;;;;;;;5035921;28;19917;-83
2021/09/19 02:09:38;;;;;;;;;;;;;;;;;;5035995;28;19921;-82
2021/09/19 02:12:04;;;;;;;;;;;;;;;;;;5035770;28;19924;-83
2021/09/19 02:14:29;;;;;;;;;;;;;;;;;;5035709;28;20015;-82
2021/09/19 02:16:55;;;;;;;;;;;;;;;;;;5034433;28;19924;-83
2021/09/19 02:19:20;;;;;;;;;;;;;;;;;;5035659;28;19948;-82
2021/09/19 02:21:46;;;;;;;;;;;;;;;;;;5034432;28;19917;-82
2021/09/19 02:24:11;;;;;;;;;;;;;;;;;;5034249;28;19952;-87
2021/09/19 02:26:37;;;;;;;;;;;;;;;;;;5035461;28;19952;-82
2021/09/19 02:29:03;;;;;;;;;;;;;;;;;;5034917;28;19960;-82
2021/09/19 02:31:28;;;;;;;;;;;;;;;;;;5035389;28;20281;-82
2021/09/19 02:33:54;;;;;;;;;;;;;;;;;;5035422;28;20324;-82
2021/09/19 02:36:19;;;;;;;;;;;;;;;;;;5035190;28;19917;-82
2021/09/19 02:38:45;;;;;;;;;;;;;;;;;;5035298;28;20385;-82
2021/09/19 02:41:10;;;;;;;;;;;;;;;;;;5035284;28;19913;-82
2021/09/19 02:43:36;;;;;;;;;;;;;;;;;;5035168;28;20404;-82
2021/09/19 02:46:01;;;;;;;;;;;;;;;;;;5035187;28;19925;-82
2021/09/19 02:48:27;;;;;;;;;;;;;;;;;;5035061;28;20289;-82
2021/09/19 02:50:52;;;;;;;;;;;;;;;;;;5034858;28;19921;-82
2021/09/19 02:53:18;;;;;;;;;;;;;;;;;;5035354;28;20377;-82
2021/09/19 02:55:43;;;;;;;;;;;;;;;;;;5034886;28;19924;-83
2021/09/19 02:58:09;;;;;;;;;;;;;;;;;;5034923;28;19924;-82
2021/09/19 03:00:34;;;;;;;;;;;;;;;;;;5034782;28;19914;-82
2021/09/19 03:03:00;;;;;;;;;;;;;;;;;;5034855;28;20281;-82
2021/09/19 03:05:25;;;;;;;;;;;;;;;;;;5034872;28;20311;-82
2021/09/19 03:07:53;;;;;;;;;;;;;;;;;;5034857;28;19913;-81
2021/09/19 03:10:18;;;;;;;;;;;;;;;;;;5033381;28;19924;-82
2021/09/19 03:12:43;;;;;;;;;;;;;;;;;;5034731;28;19913;-82
2021/09/19 03:15:09;;;;;;;;;;;;;;;;;;5034691;28;20374;-82
2021/09/19 03:17:35;;;;;;;;;;;;;;;;;;5034642;28;20379;-82
2021/09/19 03:20:00;;;;;;;;;;;;;;;;;;5034542;28;20012;-82
2021/09/19 03:22:26;;;;;;;;;;;;;;;;;;5034373;28;20370;-82
2021/09/19 03:24:51;;;;;;;;;;;;;;;;;;5034447;28;19917;-82
2021/09/19 03:27:17;;;;;;;;;;;;;;;;;;5034485;28;19964;-82
2021/09/19 03:29:42;;;;;;;;;;;;;;;;;;5034425;28;19924;-82
2021/09/19 03:32:07;;;;;;;;;;;;;;;;;;5034381;28;19917;-83
2021/09/19 03:34:34;;;;;;;;;;;;;;;;;;5034306;28;19925;-82
2021/09/19 03:37:02;;;;;;;;;;;;;;;;;;5034463;28;20006;-82
2021/09/19 03:39:28;;;;;;;;;;;;;;;;;;5033240;28;19924;-82
2021/09/19 03:41:53;;;;;;;;;;;;;;;;;;5034122;28;20308;-83
2021/09/19 03:44:19;;;;;;;;;;;;;;;;;;5034085;28;19917;-82
2021/09/19 03:46:44;;;;;;;;;;;;;;;;;;5034172;28;19924;-82
2021/09/19 03:49:10;;;;;;;;;;;;;;;;;;5034005;28;19924;-82
2021/09/19 03:51:35;;;;;;;;;;;;;;;;;;5033842;28;19964;-82
2021/09/19 03:54:01;;;;;;;;;;;;;;;;;;5033960;28;20434;-82
2021/09/19 03:56:26;;;;;;;;;;;;;;;;;;5033767;28;19928;-82
2021/09/19 03:58:51;;;;;;;;;;;;;;;;;;5033882;28;19925;-84
2021/09/19 04:01:17;;;;;;;;;;;;;;;;;;5034195;28;20369;-82
2021/09/19 04:03:42;;;;;;;;;;;;;;;;;;5033856;28;19925;-82
2021/09/19 04:06:08;;;;;;;;;;;;;;;;;;5033840;28;19917;-83
2021/09/19 04:08:34;;;;;;;;;;;;;;;;;;5033752;28;20020;-82
2021/09/19 04:10:59;;;;;;;;;;;;;;;;;;5033769;28;19960;-82
2021/09/19 04:13:24;;;;;;;;;;;;;;;;;;5032534;28;19921;-82
2021/09/19 04:15:50;;;;;;;;;;;;;;;;;;5033686;28;19924;-81
2021/09/19 04:18:16;;;;;;;;;;;;;;;;;;5033665;28;20381;-82
2021/09/19 04:20:42;;;;;;;;;;;;;;;;;;5033756;28;20015;-82
2021/09/19 04:23:08;;;;;;;;;;;;;;;;;;5033623;28;19991;-84
2021/09/19 04:25:33;;;;;;;;;;;;;;;;;;5032382;28;19985;-82
2021/09/19 04:27:59;;;;;;;;;;;;;;;;;;5033737;28;19917;-82
2021/09/19 04:30:24;;;;;;;;;;;;;;;;;;5033488;28;19924;-81
2021/09/19 04:32:50;;;;;;;;;;;;;;;;;;5032265;28;19940;-82
2021/09/19 04:35:15;;;;;;;;;;;;;;;;;;5033872;28;19923;-82
2021/09/19 04:37:41;;;;;;;;;;;;;;;;;;5034096;28;19956;-81
2021/09/19 04:40:07;;;;;;;;;;;;;;;;;;5033634;28;19917;-82
2021/09/19 04:42:32;;;;;;;;;;;;;;;;;;5034025;28;20333;-84
2021/09/19 04:44:58;;;;;;;;;;;;;;;;;;5033703;28;19956;-83
2021/09/19 04:47:23;;;;;;;;;;;;;;;;;;5033964;28;19931;-82
2021/09/19 04:49:48;;;;;;;;;;;;;;;;;;5033419;28;19932;-82
2021/09/19 04:52:14;;;;;;;;;;;;;;;;;;5039047;28;19917;-82
2021/09/19 04:54:39;;;;;;;;;;;;;;;;;;5036149;28;19913;-83
2021/09/19 04:57:05;;;;;;;;;;;;;;;;;;5036385;28;20365;-82
2021/09/19 04:59:30;;;;;;;;;;;;;;;;;;5022663;28;19921;-82
2021/09/19 05:01:56;;;;;;;;;;;;;;;;;;5017374;28;20366;-82
2021/09/19 05:04:22;;;;;;;;;;;;;;;;;;5016024;28;20290;-86
2021/09/19 05:06:47;;;;;;;;;;;;;;;;;;5034618;28;19924;-82
2021/09/19 05:09:12;;;;;;;;;;;;;;;;;;5037100;28;19921;-82
2021/09/19 05:11:38;;;;;;;;;;;;;;;;;;5033719;28;19925;-83
2021/09/19 05:14:03;;;;;;;;;;;;;;;;;;5017115;28;19929;-83
2021/09/19 05:16:29;;;;;;;;;;;;;;;;;;5024022;28;19917;-80
2021/09/19 05:18:55;;;;;;;;;;;;;;;;;;5037702;28;20313;-83
2021/09/19 05:21:21;;;;;;;;;;;;;;;;;;5037358;28;19967;-82
2021/09/19 05:23:46;;;;;;;;;;;;;;;;;;5029510;28;19917;-82
2021/09/19 05:26:12;;;;;;;;;;;;;;;;;;5017407;28;19963;-88
2021/09/19 05:28:37;;;;;;;;;;;;;;;;;;5018419;28;20294;-83
2021/09/19 05:31:03;;;;;;;;;;;;;;;;;;5017878;28;20428;-82
2021/09/19 05:33:28;;;;;;;;;;;;;;;;;;5036165;28;19917;-83
2021/09/19 05:35:54;;;;;;;;;;;;;;;;;;5039097;28;19921;-84
2021/09/19 05:38:19;;;;;;;;;;;;;;;;;;5035619;28;19917;-82
2021/09/19 05:40:45;;;;;;;;;;;;;;;;;;5040720;28;19917;-82
2021/09/19 05:43:11;;;;;;;;;;;;;;;;;;5040957;28;19940;-84
2021/09/19 05:45:36;;;;;;;;;;;;;;;;;;5032298;28;20349;-84
2021/09/19 05:48:02;;;;;;;;;;;;;;;;;;5017795;28;19917;-82
2021/09/19 05:50:27;;;;;;;;;;;;;;;;;;5017024;28;19981;-83
2021/09/19 05:52:53;;;;;;;;;;;;;;;;;;5017852;28;20026;-82
2021/09/19 05:55:18;;;;;;;;;;;;;;;;;;5016925;28;20020;-82
2021/09/19 05:57:44;;;;;;;;;;;;;;;;;;5016758;28;19928;-83
2021/09/19 06:00:10;;;;;;;;;;;;;;;;;;5017362;28;19917;-84
2021/09/19 06:02:36;;;;;;;;;;;;;;;;;;5033965;28;19917;-83
2021/09/19 06:05:01;;;;;;;;;;;;;;;;;;5022285;28;20428;-83
2021/09/19 06:07:27;;;;;;;;;;;;;;;;;;5017515;28;19996;-84
2021/09/19 06:09:52;;;;;;;;;;;;;;;;;;5033904;28;19972;-83
2021/09/19 06:12:18;;;;;;;;;;;;;;;;;;5036979;28;20274;-84
2021/09/19 06:14:43;;;;;;;;;;;;;;;;;;5035924;28;19956;-82
2021/09/19 06:17:09;;;;;;;;;;;;;;;;;;5020523;28;19963;-83
2021/09/19 06:19:34;;;;;;;;;;;;;;;;;;5015555;28;19917;-86
2021/09/19 06:22:01;;;;;;;;;;;;;;;;;;5014873;28;20281;-84
2021/09/19 06:24:28;;;;;;;;;;;;;;;;;;5016310;28;19928;-84
2021/09/19 06:26:54;;;;;;;;;;;;;;;;;;5016554;28;19963;-84
2021/09/19 06:29:19;;;;;;;;;;;;;;;;;;5015171;28;19917;-85
2021/09/19 06:31:45;;;;;;;;;;;;;;;;;;5016775;28;19918;-86
2021/09/19 06:34:10;;;;;;;;;;;;;;;;;;5016256;28;19999;-85
2021/09/19 06:36:35;;;;;;;;;;;;;;;;;;5015981;28;19983;-85
2021/09/19 06:39:01;;;;;;;;;;;;;;;;;;5016248;28;19917;-86
2021/09/19 06:41:26;;;;;;;;;;;;;;;;;;5016375;28;20016;-86
2021/09/19 06:43:52;;;;;;;;;;;;;;;;;;5028081;28;19921;-86
2021/09/19 06:46:17;;;;;;;;;;;;;;;;;;5035155;28;19924;-85
2021/09/19 06:48:43;;;;;;;;;;;;;;;;;;5017686;28;19967;-86
2021/09/19 06:51:08;;;;;;;;;;;;;;;;;;5015205;28;19922;-85
2021/09/19 06:53:37;;;;;;;;;;;;;;;;;;5032281;28;19917;-85
2021/09/19 06:56:02;;;;;;;;;;;;;;;;;;5035027;28;19971;-86
2021/09/19 06:58:28;;;;;;;;;;;;;;;;;;5034944;28;20012;-86
2021/09/19 07:00:53;;;;;;;;;;;;;;;;;;5034903;28;19921;-86
2021/09/19 07:03:19;;;;;;;;;;;;;;;;;;5027183;28;19979;-86
2021/09/19 07:05:44;;;;;;;;;;;;;;;;;;5016741;28;19968;-87
2021/09/19 07:08:10;;;;;;;;;;;;;;;;;;5014717;28;20282;-87
2021/09/19 07:10:35;;;;;;;;;;;;;;;;;;5016200;28;20048;-85
2021/09/19 07:13:00;;;;;;;;;;;;;;;;;;5024622;28;19967;-88
2021/09/19 07:15:26;;;;;;;;;;;;;;;;;;5012597;28;19922;-86
2021/09/19 07:17:51;;;;;;;;;;;;;;;;;;5014739;28;19924;-87
2021/09/19 07:20:17;;;;;;;;;;;;;;;;;;5014611;28;19940;-87
2021/09/19 07:22:42;;;;;;;;;;;;;;;;;;5014123;28;20409;-86
2021/09/19 07:25:10;;;;;;;;;;;;;;;;;;5012363;28;19964;-87
2021/09/19 07:27:38;;;;;;;;;;;;;;;;;;5013852;28;19925;-87
2021/09/19 07:30:04;;;;;;;;;;;;;;;;;;5013091;28;19975;-87
2021/09/19 07:32:31;;;;;;;;;;;;;;;;;;5012598;28;20294;-87
2021/09/19 07:34:57;;;;;;;;;;;;;;;;;;5012591;28;19961;-85
2021/09/19 07:37:22;;;;;;;;;;;;;;;;;;5012991;28;19957;-86
2021/09/19 07:39:48;;;;;;;;;;;;;;;;;;5014475;28;20337;-86
2021/09/19 07:42:13;;;;;;;;;;;;;;;;;;5013933;28;20012;-86
2021/09/19 07:44:39;;;;;;;;;;;;;;;;;;5013536;28;20370;-86
2021/09/19 07:47:05;;;;;;;;;;;;;;;;;;5014559;28;20008;-87
2021/09/19 07:49:31;;;;;;;;;;;;;;;;;;5012714;28;20024;-86
2021/09/19 07:51:56;;;;;;;;;;;;;;;;;;5012949;28;19928;-85
2021/09/19 07:54:22;;;;;;;;;;;;;;;;;;5013938;28;19936;-86
2021/09/19 07:56:48;;;;;;;;;;;;;;;;;;5013683;28;19922;-85
2021/09/19 07:59:14;;;;;;;;;;;;;;;;;;5014080;28;19926;-86
2021/09/19 08:01:39;;;;;;;;;;;;;;;;;;5014047;28;19917;-87
2021/09/19 08:04:05;;;;;;;;;;;;;;;;;;5013586;28;19917;-89
2021/09/19 08:06:33;;;;;;;;;;;;;;;;;;5013593;28;19925;-88
2021/09/19 08:08:58;;;;;;;;;;;;;;;;;;5014249;28;19917;-89
2021/09/19 08:11:24;;;;;;;;;;;;;;;;;;5014114;28;20259;-85
2021/09/19 08:13:54;;;;;;;;;;;;;;;;;;5014351;28;20277;-88
2021/09/19 08:16:19;;;;;;;;;;;;;;;;;;5013845;28;19917;-87
2021/09/19 08:18:45;;;;;;;;;;;;;;;;;;5013957;28;20437;-87
2021/09/19 08:21:10;;;;;;;;;;;;;;;;;;5014291;28;19918;-85
2021/09/19 08:23:36;;;;;;;;;;;;;;;;;;5012105;28;19917;-85
2021/09/19 08:26:01;;;;;;;;;;;;;;;;;;5014958;28;20285;-90
2021/09/19 08:28:26;;;;;;;;;;;;;;;;;;5017897;28;19976;-84
2021/09/19 08:30:52;;;;;;;;;;;;;;;;;;5017732;28;19925;-87
2021/09/19 08:33:17;;;;;;;;;;;;;;;;;;5018079;28;19917;-90
2021/09/19 08:35:43;;;;;;;;;;;;;;;;;;5016394;28;19925;-85
2021/09/19 08:38:08;;;;;;;;;;;;;;;;;;5017929;28;19917;-86
2021/09/19 08:40:34;;;;;;;;;;;;;;;;;;5016242;28;19932;-85
2021/09/19 08:43:00;;;;;;;;;;;;;;;;;;5017481;28;19918;-85
2021/09/19 08:45:25;;;;;;;;;;;;;;;;;;5016885;28;20378;-89
2021/09/19 08:47:51;;;;;;;;;;;;;;;;;;5017678;28;19921;-86
2021/09/19 08:50:17;;;;;;;;;;;;;;;;;;5016209;28;19925;-88
2021/09/19 08:52:43;;;;;;;;;;;;;;;;;;5016161;28;19917;-86
2021/09/19 08:55:09;;;;;;;;;;;;;;;;;;5017583;28;19988;-86
2021/09/19 08:57:35;;;;;;;;;;;;;;;;;;5017185;28;19918;-87
2021/09/19 09:00:03;;;;;;;;;;;;;;;;;;5017389;28;19917;-87
2021/09/19 09:02:29;;;;;;;;;;;;;;;;;;5017142;28;19932;-86
2021/09/19 09:04:55;;;;;;;;;;;;;;;;;;5016785;28;19917;-86
2021/09/19 09:07:22;;;;;;;;;;;;;;;;;;5015756;28;19917;-88
2021/09/19 09:09:55;;;;;;;;;;;;;;;;;;5017203;28;19918;-85
2021/09/19 09:12:21;;;;;;;;;;;;;;;;;;5016943;28;19917;-86
2021/09/19 09:14:51;;;;;;;;;;;;;;;;;;5016239;28;19940;-85
2021/09/19 09:17:18;;;;;;;;;;;;;;;;;;5016902;28;20007;-86
2021/09/19 09:19:46;;;;;;;;;;;;;;;;;;5016913;28;19921;-84
2021/09/19 09:22:12;;;;;;;;;;;;;;;;;;5015365;28;20553;-85
2021/09/19 09:24:39;;;;;;;;;;;;;;;;;;5015116;28;19917;-85
2021/09/19 09:27:23;;;;;;;;;;;;;;;;;;5016345;28;19923;-86
2021/09/19 09:30:07;;;;;;;;;;;;;;;;;;5017006;28;19917;-86
2021/09/19 09:32:48;;;;;;;;;;;;;;;;;;5016745;28;19926;-87
2021/09/19 09:35:13;;;;;;;;;;;;;;;;;;5016943;28;19941;-84
2021/09/19 09:37:40;;;;;;;;;;;;;;;;;;5016469;28;20373;-86
2021/09/19 09:40:15;;;;;;;;;;;;;;;;;;5016980;28;19917;-85
2021/09/19 09:42:59;;;;;;;;;;;;;;;;;;5018391;28;20403;-84
2021/09/19 09:45:25;;;;;;;;;;;;;;;;;;5016536;28;19940;-86
2021/09/19 09:47:50;;;;;;;;;;;;;;;;;;5022922;28;20370;-85
2021/09/19 09:50:23;;;;;;;;;;;;;;;;;;5031760;28;19951;-87
2021/09/19 09:52:48;;;;;;;;;;;;;;;;;;5027337;28;19988;-86
2021/09/19 09:55:14;;;;;;;;;;;;;;;;;;5017259;28;20377;-87
2021/09/19 09:57:39;;;;;;;;;;;;;;;;;;5014865;28;20270;-88
2021/09/19 10:00:09;;;;;;;;;;;;;;;;;;5014964;28;20298;-87
2021/09/19 10:02:35;;;;;;;;;;;;;;;;;;5016092;28;20465;-88
2021/09/19 10:05:01;;;;;;;;;;;;;;;;;;5014364;28;20487;-86
2021/09/19 10:07:26;;;;;;;;;;;;;;;;;;5014603;28;20024;-89
2021/09/19 10:09:52;;;;;;;;;;;;;;;;;;5030614;28;19917;-88
2021/09/19 10:12:21;;;;;;;;;;;;;;;;;;5035422;28;20331;-84
2021/09/19 10:14:51;;;;;;;;;;;;;;;;;;5035858;28;19924;-85
2021/09/19 10:17:17;;;;;;;;;;;;;;;;;;5033910;28;19925;-89
2021/09/19 10:19:45;;;;;;;;;;;;;;;;;;5035545;28;19943;-88
2021/09/19 10:22:11;;;;;;;;;;;;;;;;;;5034447;28;19924;-86
2021/09/19 10:24:37;;;;;;;;;;;;;;;;;;5034937;28;19917;-86
2021/09/19 10:27:13;;;;;;;;;;;;;;;;;;5033838;28;19971;-86
2021/09/19 10:29:38;;;;;;;;;;;;;;;;;;5035637;28;19917;-86
2021/09/19 10:32:04;;;;;;;;;;;;;;;;;;5035204;28;20277;-86
2021/09/19 10:34:34;;;;;;;;;;;;;;;;;;5034118;28;19917;-87
2021/09/19 10:37:00;;;;;;;;;;;;;;;;;;5034923;28;19924;-86
2021/09/19 10:39:30;;;;;;;;;;;;;;;;;;5035198;28;19921;-87
2021/09/19 10:42:05;;;;;;;;;;;;;;;;;;5034472;28;19917;-87
2021/09/19 10:44:35;;;;;;;;;;;;;;;;;;5033227;28;19917;-89
2021/09/19 10:47:05;;;;;;;;;;;;;;;;;;5033548;28;19917;-85
2021/09/19 10:49:33;;;;;;;;;;;;;;;;;;5033233;28;19944;-86
2021/09/19 10:52:01;;;;;;;;;;;;;;;;;;5034952;28;19928;-87
2021/09/19 10:54:42;;;;;;;;;;;;;;;;;;5034396;28;19944;-88
2021/09/19 10:57:26;;;;;;;;;;;;;;;;;;5033562;28;20429;-87
2021/09/19 11:00:10;;;;;;;;;;;;;;;;;;5034355;28;19921;-87
2021/09/19 11:02:39;;;;;;;;;;;;;;;;;;5034772;28;19967;-88
2021/09/19 11:05:20;;;;;;;;;;;;;;;;;;5033925;28;19918;-87
2021/09/19 11:07:46;;;;;;;;;;;;;;;;;;5030720;28;20373;-87
2021/09/19 11:10:16;;;;;;;;;;;;;;;;;;5024771;28;19928;-87
2021/09/19 11:12:46;;;;;;;;;;;;;;;;;;5014281;28;19922;-88
2021/09/19 11:15:14;;;;;;;;;;;;;;;;;;5022444;28;19931;-88
2021/09/19 11:17:48;;;;;;;;;;;;;;;;;;5018530;28;19922;-87
2021/09/19 11:20:13;;;;;;;;;;;;;;;;;;5020788;28;20123;-88
2021/09/19 11:22:43;;;;;;;;;;;;;;;;;;5033257;28;20388;-88
2021/09/19 11:25:09;;;;;;;;;;;;;;;;;;5027300;28;19918;-88
2021/09/19 11:27:37;;;;;;;;;;;;;;;;;;5025532;28;19947;-87
2021/09/19 11:30:02;;;;;;;;;;;;;;;;;;5025953;28;19917;-87
2021/09/19 11:32:30;;;;;;;;;;;;;;;;;;5016138;28;20023;-87
2021/09/19 11:34:57;;;;;;;;;;;;;;;;;;5019489;28;19924;-88
2021/09/19 11:37:22;;;;;;;;;;;;;;;;;;5018248;28;20427;-89
2021/09/19 11:39:48;;;;;;;;;;;;;;;;;;5022726;28;19918;-88
2021/09/19 11:42:13;;;;;;;;;;;;;;;;;;5014477;28;19917;-88
2021/09/19 11:44:43;;;;;;;;;;;;;;;;;;5012767;28;19924;-88
2021/09/19 11:47:08;;;;;;;;;;;;;;;;;;5013834;28;19968;-87
2021/09/19 11:49:38;;;;;;;;;;;;;;;;;;5013260;28;19918;-87
2021/09/19 11:52:04;;;;;;;;;;;;;;;;;;5014047;28;20173;-88
2021/09/19 11:54:29;;;;;;;;;;;;;;;;;;5013859;28;19924;-87
2021/09/19 11:56:56;;;;;;;;;;;;;;;;;;5014474;28;19917;-87
2021/09/19 11:59:21;;;;;;;;;;;;;;;;;;5013720;28;19965;-87
2021/09/19 12:01:47;;;;;;;;;;;;;;;;;;5013384;28;19944;-88
2021/09/19 12:04:13;;;;;;;;;;;;;;;;;;5013820;28;19921;-87
2021/09/19 12:06:41;;;;;;;;;;;;;;;;;;5011970;28;20393;-86
2021/09/19 12:09:10;;;;;;;;;;;;;;;;;;5014181;28;19918;-86
2021/09/19 12:11:39;;;;;;;;;;;;;;;;;;5013816;28;20017;-86
2021/09/19 12:14:09;;;;;;;;;;;;;;;;;;5012336;28;20379;-88
2021/09/19 12:16:35;;;;;;;;;;;;;;;;;;5013866;28;19929;-86
2021/09/19 12:19:00;;;;;;;;;;;;;;;;;;5013437;28;19917;-86
2021/09/19 12:21:26;;;;;;;;;;;;;;;;;;5013812;28;19921;-85
2021/09/19 12:23:52;;;;;;;;;;;;;;;;;;5013742;28;19924;-86
2021/09/19 12:26:28;;;;;;;;;;;;;;;;;;5013206;28;20015;-86
2021/09/19 12:29:16;;;;;;;;;;;;;;;;;;5014054;28;19976;-86
2021/09/19 12:31:42;;;;;;;;;;;;;;;;;;5012632;28;19924;-88
2021/09/19 12:34:09;;;;;;;;;;;;;;;;;;5012079;28;19917;-86
2021/09/19 12:36:39;;;;;;;;;;;;;;;;;;5013697;28;19918;-86
2021/09/19 12:39:04;;;;;;;;;;;;;;;;;;5013291;28;19917;-87
2021/09/19 12:41:31;;;;;;;;;;;;;;;;;;5012236;28;19926;-89
2021/09/19 12:43:57;;;;;;;;;;;;;;;;;;5014018;28;19924;-86
2021/09/19 12:46:22;;;;;;;;;;;;;;;;;;5013418;28;19917;-87
2021/09/19 12:48:48;;;;;;;;;;;;;;;;;;5012140;28;19960;-86
2021/09/19 12:51:15;;;;;;;;;;;;;;;;;;5013559;28;20020;-87
2021/09/19 12:53:44;;;;;;;;;;;;;;;;;;5013034;28;20020;-90
2021/09/19 12:56:10;;;;;;;;;;;;;;;;;;5013679;28;19925;-87
2021/09/19 12:58:35;;;;;;;;;;;;;;;;;;5013395;28;19921;-87
2021/09/19 13:01:09;;;;;;;;;;;;;;;;;;5013208;28;19922;-91
2021/09/19 13:03:34;;;;;;;;;;;;;;;;;;5012254;28;19922;-86
2021/09/19 13:06:00;;;;;;;;;;;;;;;;;;5012956;28;20452;-88
2021/09/19 13:08:25;;;;;;;;;;;;;;;;;;5012940;28;19971;-90
2021/09/19 13:10:52;;;;;;;;;;;;;;;;;;5012466;28;19953;-86
2021/09/19 13:13:19;;;;;;;;;;;;;;;;;;5014934;28;19949;-87
2021/09/19 13:15:44;;;;;;;;;;;;;;;;;;5017068;28;19922;-88
2021/09/19 13:18:10;;;;;;;;;;;;;;;;;;5017129;28;19924;-88
2021/09/19 13:20:35;;;;;;;;;;;;;;;;;;5016562;28;19922;-87
2021/09/19 13:23:01;;;;;;;;;;;;;;;;;;5017154;28;19917;-87
2021/09/19 13:25:26;;;;;;;;;;;;;;;;;;5016487;28;20276;-86
2021/09/19 13:27:53;;;;;;;;;;;;;;;;;;5016345;28;20433;-86
2021/09/19 13:30:19;;;;;;;;;;;;;;;;;;5016857;28;19923;-86
2021/09/19 13:32:45;;;;;;;;;;;;;;;;;;5015309;28;20008;-86
2021/09/19 13:35:11;;;;;;;;;;;;;;;;;;5016495;28;19925;-87
2021/09/19 13:37:37;;;;;;;;;;;;;;;;;;5016725;28;19918;-89
2021/09/19 13:40:03;;;;;;;;;;;;;;;;;;5015185;28;19964;-86
2021/09/19 13:42:28;;;;;;;;;;;;;;;;;;5016624;28;20354;-86
2021/09/19 13:44:55;;;;;;;;;;;;;;;;;;5015371;28;19922;-86
2021/09/19 13:47:20;;;;;;;;;;;;;;;;;;5016216;28;20329;-85
2021/09/19 13:49:48;;;;;;;;;;;;;;;;;;5015884;28;19917;-87
2021/09/19 13:52:13;;;;;;;;;;;;;;;;;;5017015;28;20015;-85
2021/09/19 13:54:42;;;;;;;;;;;;;;;;;;5016346;28;20271;-87
2021/09/19 13:57:07;;;;;;;;;;;;;;;;;;5015770;28;19917;-88
2021/09/19 13:59:33;;;;;;;;;;;;;;;;;;5015993;28;19925;-86
2021/09/19 14:01:58;;;;;;;;;;;;;;;;;;5026196;28;19918;-87
2021/09/19 14:04:24;;;;;;;;;;;;;;;;;;5024136;28;19921;-86
2021/09/19 14:06:50;;;;;;;;;;;;;;;;;;5046927;28;19917;-87
2021/09/19 14:09:15;;;;;;;;;;;;;;;;;;5031947;28;19917;-86
2021/09/19 14:11:41;;;;;;;;;;;;;;;;;;5020677;28;19924;-87
2021/09/19 14:14:07;;;;;;;;;;;;;;;;;;5018468;28;19917;-86
2021/09/19 14:16:34;;;;;;;;;;;;;;;;;;5020345;28;19921;-88
2021/09/19 14:18:59;;;;;;;;;;;;;;;;;;5017084;28;19917;-87
2021/09/19 14:21:25;;;;;;;;;;;;;;;;;;5015904;28;19917;-86
2021/09/19 14:23:51;;;;;;;;;;;;;;;;;;5015303;28;19925;-87
2021/09/19 14:26:19;;;;;;;;;;;;;;;;;;5015313;28;19960;-87
2021/09/19 14:28:45;;;;;;;;;;;;;;;;;;5015254;28;20292;-85
2021/09/19 14:31:11;;;;;;;;;;;;;;;;;;5016080;28;20377;-88
2021/09/19 14:33:37;;;;;;;;;;;;;;;;;;5015059;28;19917;-87
2021/09/19 14:36:02;;;;;;;;;;;;;;;;;;5015693;28;19917;-87
2021/09/19 14:38:28;;;;;;;;;;;;;;;;;;5015427;28;19917;-88
2021/09/19 14:40:53;;;;;;;;;;;;;;;;;;5013947;28;19993;-87
2021/09/19 14:43:19;;;;;;;;;;;;;;;;;;5015527;28;19918;-87
2021/09/19 14:45:44;;;;;;;;;;;;;;;;;;5015299;28;19972;-87
2021/09/19 14:48:09;;;;;;;;;;;;;;;;;;5013762;28;19925;-87
2021/09/19 14:50:35;;;;;;;;;;;;;;;;;;5014928;28;19925;-86
2021/09/19 14:53:00;;;;;;;;;;;;;;;;;;5014592;28;19971;-87
2021/09/19 14:55:26;;;;;;;;;;;;;;;;;;5014756;28;19963;-86
2021/09/19 14:57:51;;;;;;;;;;;;;;;;;;5014927;28;19921;-85
2021/09/19 15:00:17;;;;;;;;;;;;;;;;;;5013438;28;19925;-89
2021/09/19 15:02:42;;;;;;;;;;;;;;;;;;5014628;28;19925;-88
2021/09/19 15:05:08;;;;;;;;;;;;;;;;;;5014996;28;19917;-89
2021/09/19 15:07:34;;;;;;;;;;;;;;;;;;5013255;28;20024;-87
2021/09/19 15:09:59;;;;;;;;;;;;;;;;;;5014276;28;19917;-87
2021/09/19 15:12:24;;;;;;;;;;;;;;;;;;5015040;28;20407;-85
2021/09/19 15:14:50;;;;;;;;;;;;;;;;;;5014304;28;19924;-86
2021/09/19 15:17:15;;;;;;;;;;;;;;;;;;5015390;28;19918;-86
2021/09/19 15:19:41;;;;;;;;;;;;;;;;;;5015034;28;19918;-87
2021/09/19 15:22:06;;;;;;;;;;;;;;;;;;5014367;28;19917;-87
2021/09/19 15:24:32;;;;;;;;;;;;;;;;;;5014789;28;20393;-89
2021/09/19 15:26:57;;;;;;;;;;;;;;;;;;5013170;28;20557;-87
2021/09/19 15:29:24;;;;;;;;;;;;;;;;;;5014149;28;19923;-87
2021/09/19 15:31:49;;;;;;;;;;;;;;;;;;5013689;28;19923;-87
2021/09/19 15:34:15;;;;;;;;;;;;;;;;;;5014149;28;20007;-87
2021/09/19 15:36:40;;;;;;;;;;;;;;;;;;5014195;28;19925;-90
2021/09/19 15:39:11;;;;;;;;;;;;;;;;;;5014434;28;19979;-87
2021/09/19 15:41:37;;;;;;;;;;;;;;;;;;5014129;28;19972;-87
2021/09/19 15:44:03;;;;;;;;;;;;;;;;;;5014661;28;20059;-86
2021/09/19 15:46:30;;;;;;;;;;;;;;;;;;5014051;28;20393;-87
2021/09/19 15:48:58;;;;;;;;;;;;;;;;;;5012432;28;20008;-89
2021/09/19 15:51:23;;;;;;;;;;;;;;;;;;5014114;28;19928;-90
2021/09/19 15:53:49;;;;;;;;;;;;;;;;;;5014170;28;20285;-90
2021/09/19 15:56:15;;;;;;;;;;;;;;;;;;5014409;28;20382;-91
2021/09/19 15:58:40;;;;;;;;;;;;;;;;;;5014760;28;19917;-89
2021/09/19 16:01:06;;;;;;;;;;;;;;;;;;5014217;28;19918;-90
2021/09/19 16:03:32;;;;;;;;;;;;;;;;;;5012987;28;19917;-92
2021/09/19 16:05:58;;;;;;;;;;;;;;;;;;5014675;28;19932;-84
2021/09/19 16:08:24;;;;;;;;;;;;;;;;;;5013715;28;20374;-89
2021/09/19 16:10:50;;;;;;;;;;;;;;;;;;5013604;28;19917;-84
2021/09/19 16:13:15;;;;;;;;;;;;;;;;;;5012888;28;20016;-88
2021/09/19 16:15:41;;;;;;;;;;;;;;;;;;5012024;28;19917;-85
2021/09/19 16:18:07;;;;;;;;;;;;;;;;;;5014006;28;19918;-85
2021/09/19 16:20:33;;;;;;;;;;;;;;;;;;5013338;28;19917;-83
2021/09/19 16:23:00;;;;;;;;;;;;;;;;;;5013733;28;19917;-89
2021/09/19 16:25:26;;;;;;;;;;;;;;;;;;5028132;28;20385;-84
2021/09/19 16:27:51;;;;;;;;;;;;;;;;;;5013417;28;19917;-86
2021/09/19 16:30:17;;;;;;;;;;;;;;;;;;5013277;28;19940;-90
2021/09/19 16:32:42;;;;;;;;;;;;;;;;;;5013816;28;19941;-90
2021/09/19 16:35:08;;;;;;;;;;;;;;;;;;5012982;28;20008;-89
2021/09/19 16:37:34;;;;;;;;;;;;;;;;;;5013703;28;19953;-91
2021/09/19 16:40:00;;;;;;;;;;;;;;;;;;5013688;28;19988;-89